Time;durP1;ratioP1;P1;durP2;ratioP2;P2;SDS_P1;SDS_P2;PMS_P1;PMS_P2;Temp;Humidity;BMP_temperature;BMP_pressure;BME280_temperature;BME280_humidity;BME280_pressure;Samples;Min_cycle;Max_cycle;Signal;HPM_P1;HPM_P2
2022/01/05 00:01:14;;;;;;;5.45;1.10;;;;;;;;;;5030296;28;20045;-58
2022/01/05 00:03:40;;;;;;;4.63;1.05;;;;;;;;;;5030444;28;20047;-58
2022/01/05 00:06:07;;;;;;;9.35;1.00;;;;;;;;;;5012002;28;20033;-58
2022/01/05 00:08:33;;;;;;;2.72;1.05;;;;;;;;;;5028888;28;20488;-58
2022/01/05 00:11:07;;;;;;;0.45;0.45;;;;;;;;;;5029206;28;20033;-60
2022/01/05 00:13:36;;;;;;;2.35;1.00;;;;;;;;;;5029323;28;20037;-57
2022/01/05 00:16:01;;;;;;;3.53;0.95;;;;;;;;;;5010036;28;20044;-59
2022/01/05 00:18:31;;;;;;;10.18;1.00;;;;;;;;;;5028268;28;20036;-59
2022/01/05 00:20:59;;;;;;;4.70;0.95;;;;;;;;;;5030651;28;22056;-58
2022/01/05 00:23:27;;;;;;;3.17;1.20;;;;;;;;;;5030152;28;20114;-59
2022/01/05 00:25:55;;;;;;;12.75;1.02;;;;;;;;;;5029031;28;20575;-57
2022/01/05 00:28:23;;;;;;;2.38;0.75;;;;;;;;;;5028269;28;20124;-57
2022/01/05 00:30:51;;;;;;;8.10;1.08;;;;;;;;;;5029291;28;20033;-58
2022/01/05 00:33:19;;;;;;;2.33;1.05;;;;;;;;;;5031531;28;20749;-58
2022/01/05 00:35:44;;;;;;;13.43;1.70;;;;;;;;;;5029948;28;20072;-58
2022/01/05 00:41:15;;;;;;;7.78;1.08;;;;;;;;;;5028441;28;20044;-58
2022/01/05 00:43:41;;;;;;;6.75;1.15;;;;;;;;;;5031014;28;20021;-58
2022/01/05 00:46:09;;;;;;;2.15;0.63;;;;;;;;;;5017844;28;20028;-58
2022/01/05 00:48:39;;;;;;;5.68;1.27;;;;;;;;;;5030318;28;20978;-58
2022/01/05 00:51:06;;;;;;;3.00;0.95;;;;;;;;;;5027926;28;20055;-58
2022/01/05 00:53:34;;;;;;;8.43;1.25;;;;;;;;;;5029615;28;20737;-58
2022/01/05 00:56:03;;;;;;;2.13;0.90;;;;;;;;;;5025029;28;20027;-58
2022/01/05 00:58:32;;;;;;;12.52;1.25;;;;;;;;;;5028293;28;20481;-59
2022/01/05 01:01:00;;;;;;;5.07;0.60;;;;;;;;;;5009710;28;20075;-58
2022/01/05 01:03:30;;;;;;;2.60;0.75;;;;;;;;;;5030921;28;20032;-58
2022/01/05 01:05:58;;;;;;;7.47;1.65;;;;;;;;;;5029766;28;20029;-58
2022/01/05 01:08:28;;;;;;;5.15;1.30;;;;;;;;;;5035317;28;20033;-58
2022/01/05 01:10:54;;;;;;;8.07;2.42;;;;;;;;;;5027562;28;20064;-58
2022/01/05 01:13:22;;;;;;;10.77;1.65;;;;;;;;;;4993468;28;20135;-58
2022/01/05 01:15:51;;;;;;;5.43;0.90;;;;;;;;;;5027481;28;20047;-57
2022/01/05 01:18:17;;;;;;;3.05;1.05;;;;;;;;;;5029815;28;20029;-57
2022/01/05 01:20:45;;;;;;;10.60;2.58;;;;;;;;;;5030677;28;20431;-57
2022/01/05 01:23:13;;;;;;;9.68;2.03;;;;;;;;;;5008765;28;21196;-58
2022/01/05 01:25:41;;;;;;;31.13;3.05;;;;;;;;;;5030855;28;20120;-58
2022/01/05 01:28:06;;;;;;;13.93;1.10;;;;;;;;;;5031022;28;20047;-58
2022/01/05 01:30:35;;;;;;;7.40;1.42;;;;;;;;;;5028706;28;20033;-58
2022/01/05 01:33:03;;;;;;;9.45;1.77;;;;;;;;;;5031336;28;20111;-58
2022/01/05 01:35:33;;;;;;;8.73;1.20;;;;;;;;;;5031859;28;20066;-57
2022/01/05 01:38:02;;;;;;;9.82;1.05;;;;;;;;;;5010631;28;20048;-58
2022/01/05 01:40:30;;;;;;;3.45;0.75;;;;;;;;;;5029144;28;20033;-58
2022/01/05 01:42:58;;;;;;;11.15;1.38;;;;;;;;;;5019473;28;20033;-57
2022/01/05 01:45:27;;;;;;;12.30;1.50;;;;;;;;;;5033974;28;20037;-58
2022/01/05 01:47:53;;;;;;;1.15;0.98;;;;;;;;;;5035211;28;20186;-57
2022/01/05 01:50:20;;;;;;;3.47;1.85;;;;;;;;;;5038797;28;20029;-58
2022/01/05 01:52:48;;;;;;;9.60;1.50;;;;;;;;;;5033366;28;20029;-57
2022/01/05 01:55:14;;;;;;;6.22;1.63;;;;;;;;;;5031443;28;20729;-57
2022/01/05 01:57:45;;;;;;;2.92;1.25;;;;;;;;;;5018223;28;20057;-59
2022/01/05 02:00:11;;;;;;;6.13;1.15;;;;;;;;;;5033911;28;20025;-57
2022/01/05 02:02:42;;;;;;;11.35;1.15;;;;;;;;;;5031895;28;20025;-59
2022/01/05 02:05:12;;;;;;;11.25;1.50;;;;;;;;;;5030283;28;20040;-58
2022/01/05 02:07:40;;;;;;;11.35;1.67;;;;;;;;;;5033521;28;20128;-59
2022/01/05 02:10:09;;;;;;;8.23;1.75;;;;;;;;;;5002872;28;20120;-59
2022/01/05 02:12:35;;;;;;;14.50;1.20;;;;;;;;;;5030928;28;20369;-57
2022/01/05 02:15:01;;;;;;;15.23;1.73;;;;;;;;;;5012370;28;20033;-58
2022/01/05 02:17:43;;;;;;;5.72;0.93;;;;;;;;;;5028273;28;20033;-58
2022/01/05 02:20:18;;;;;;;7.80;1.35;;;;;;;;;;5031926;28;20037;-58
2022/01/05 02:22:46;;;;;;;7.72;0.95;;;;;;;;;;5032736;28;20128;-58
2022/01/05 02:25:16;;;;;;;6.63;1.35;;;;;;;;;;5033593;28;20020;-59
2022/01/05 02:27:44;;;;;;;18.02;2.22;;;;;;;;;;5032144;28;20028;-59
2022/01/05 02:30:11;;;;;;;7.63;1.52;;;;;;;;;;5030048;28;20029;-59
2022/01/05 02:32:39;;;;;;;8.52;1.50;;;;;;;;;;5018677;28;20033;-57
2022/01/05 02:35:05;;;;;;;9.13;1.15;;;;;;;;;;5031686;28;20047;-58
2022/01/05 02:37:38;;;;;;;10.32;1.17;;;;;;;;;;5032102;28;20033;-58
2022/01/05 02:40:07;;;;;;;5.05;1.27;;;;;;;;;;5032296;28;20030;-57
2022/01/05 02:42:39;;;;;;;7.13;1.52;;;;;;;;;;5032188;28;20020;-57
2022/01/05 02:45:04;;;;;;;13.10;1.67;;;;;;;;;;5014398;28;20385;-57
2022/01/05 02:47:32;;;;;;;2.72;0.50;;;;;;;;;;5031127;28;20246;-57
2022/01/05 02:49:58;;;;;;;12.27;1.35;;;;;;;;;;5016475;28;20045;-60
2022/01/05 02:52:29;;;;;;;9.15;1.75;;;;;;;;;;5031200;28;20086;-58
2022/01/05 02:55:00;;;;;;;12.05;1.83;;;;;;;;;;5014980;28;20052;-57
2022/01/05 02:57:26;;;;;;;10.63;1.83;;;;;;;;;;5278302;22;20746;-59
2022/01/05 02:59:54;;;;;;;3.50;1.90;;;;;;;;;;5013632;28;20033;-58
2022/01/05 03:02:22;;;;;;;11.50;1.73;;;;;;;;;;5025670;28;20029;-58
2022/01/05 03:04:49;;;;;;;11.40;1.60;;;;;;;;;;5008146;28;20159;-58
2022/01/05 03:07:16;;;;;;;13.73;2.20;;;;;;;;;;5026711;28;20056;-57
2022/01/05 03:09:41;;;;;;;23.80;2.33;;;;;;;;;;5023745;28;20040;-58
2022/01/05 03:12:08;;;;;;;11.25;1.45;;;;;;;;;;5028186;28;20055;-58
2022/01/05 03:14:33;;;;;;;10.48;1.33;;;;;;;;;;5023505;28;20025;-59
2022/01/05 03:17:01;;;;;;;17.50;1.92;;;;;;;;;;5028842;28;20029;-58
2022/01/05 03:19:29;;;;;;;12.25;2.45;;;;;;;;;;5024262;28;20549;-59
2022/01/05 03:21:55;;;;;;;11.68;1.77;;;;;;;;;;5024513;28;20033;-59
2022/01/05 03:24:23;;;;;;;5.50;1.13;;;;;;;;;;5026854;28;20651;-59
2022/01/05 03:26:49;;;;;;;8.15;1.67;;;;;;;;;;5026111;28;20059;-59
2022/01/05 03:29:19;;;;;;;6.93;1.73;;;;;;;;;;5023241;28;20029;-59
2022/01/05 03:31:47;;;;;;;14.77;2.30;;;;;;;;;;5021892;28;20029;-61
2022/01/05 03:34:17;;;;;;;18.67;1.88;;;;;;;;;;5010504;28;20523;-59
2022/01/05 03:36:43;;;;;;;7.30;1.98;;;;;;;;;;5008648;28;20102;-58
2022/01/05 03:39:10;;;;;;;7.78;1.20;;;;;;;;;;5027038;28;21204;-59
2022/01/05 03:41:39;;;;;;;9.65;0.98;;;;;;;;;;5025334;28;20041;-59
2022/01/05 03:44:04;;;;;;;7.63;1.33;;;;;;;;;;5023995;28;20079;-59
2022/01/05 03:46:30;;;;;;;26.15;2.08;;;;;;;;;;5025973;28;20041;-59
2022/01/05 03:48:59;;;;;;;13.40;1.60;;;;;;;;;;5041934;28;20027;-58
2022/01/05 03:51:27;;;;;;;11.05;1.48;;;;;;;;;;5024001;28;20114;-59
2022/01/05 03:53:53;;;;;;;18.70;1.77;;;;;;;;;;5020311;28;21004;-59
2022/01/05 03:56:18;;;;;;;7.15;1.27;;;;;;;;;;5022843;28;20043;-58
2022/01/05 03:58:46;;;;;;;10.20;1.13;;;;;;;;;;4989901;28;20057;-59
2022/01/05 04:01:14;;;;;;;7.85;1.20;;;;;;;;;;5027405;28;20025;-59
2022/01/05 04:03:42;;;;;;;7.70;1.25;;;;;;;;;;5024262;28;20138;-60
2022/01/05 04:06:12;;;;;;;5.47;1.60;;;;;;;;;;5019165;28;21827;-60
2022/01/05 04:08:42;;;;;;;8.23;1.35;;;;;;;;;;5023321;28;22109;-60
2022/01/05 04:11:12;;;;;;;7.22;1.10;;;;;;;;;;5027426;28;20041;-59
2022/01/05 04:13:38;;;;;;;10.52;1.55;;;;;;;;;;5025580;28;20041;-59
2022/01/05 04:16:10;;;;;;;6.85;1.08;;;;;;;;;;5023498;28;20635;-59
2022/01/05 04:18:43;;;;;;;7.55;1.13;;;;;;;;;;5019574;28;20045;-59
2022/01/05 04:21:09;;;;;;;3.88;1.02;;;;;;;;;;5025303;28;20661;-59
2022/01/05 04:23:34;;;;;;;8.55;1.23;;;;;;;;;;5021501;28;20036;-58
2022/01/05 04:26:00;;;;;;;9.35;0.75;;;;;;;;;;5023445;28;20427;-58
2022/01/05 04:28:27;;;;;;;7.28;1.20;;;;;;;;;;5038788;28;20883;-58
2022/01/05 04:30:55;;;;;;;8.45;1.13;;;;;;;;;;5025551;28;20143;-59
2022/01/05 04:33:25;;;;;;;5.28;1.13;;;;;;;;;;4992795;28;20123;-59
2022/01/05 04:35:51;;;;;;;4.13;0.80;;;;;;;;;;5023300;28;20041;-59
2022/01/05 04:38:17;;;;;;;6.32;0.75;;;;;;;;;;5025509;28;20055;-58
2022/01/05 04:40:43;;;;;;;9.82;1.00;;;;;;;;;;5008269;28;20045;-58
2022/01/05 04:43:11;;;;;;;7.50;1.38;;;;;;;;;;5025994;28;20984;-58
2022/01/05 04:45:36;;;;;;;6.35;0.90;;;;;;;;;;5040035;28;20033;-60
2022/01/05 04:48:04;;;;;;;6.53;0.90;;;;;;;;;;5023541;28;22050;-59
2022/01/05 04:50:34;;;;;;;11.00;1.45;;;;;;;;;;5005290;28;20170;-58
2022/01/05 04:53:02;;;;;;;9.52;1.48;;;;;;;;;;5039646;28;20505;-59
2022/01/05 04:55:30;;;;;;;6.43;1.35;;;;;;;;;;5024814;28;20553;-59
2022/01/05 04:58:00;;;;;;;8.48;1.08;;;;;;;;;;5023020;28;20053;-58
2022/01/05 05:00:26;;;;;;;2.15;0.82;;;;;;;;;;5034012;28;20041;-58
2022/01/05 05:02:53;;;;;;;13.02;1.27;;;;;;;;;;5009379;28;20505;-59
2022/01/05 05:05:21;;;;;;;8.65;1.50;;;;;;;;;;5021413;28;20032;-58
2022/01/05 05:07:52;;;;;;;16.10;1.85;;;;;;;;;;5023818;28;20031;-58
2022/01/05 05:10:19;;;;;;;16.55;1.92;;;;;;;;;;5024120;28;20033;-59
2022/01/05 05:12:45;;;;;;;11.18;1.08;;;;;;;;;;5023002;28;20087;-59
2022/01/05 05:15:11;;;;;;;9.05;1.58;;;;;;;;;;5008142;28;20081;-59
2022/01/05 05:17:51;;;;;;;7.82;2.00;;;;;;;;;;5022787;28;20041;-58
2022/01/05 05:20:16;;;;;;;14.98;2.17;;;;;;;;;;5026068;28;20036;-60
2022/01/05 05:22:42;;;;;;;8.75;1.95;;;;;;;;;;5027584;28;20045;-60
2022/01/05 05:25:07;;;;;;;7.65;1.02;;;;;;;;;;5042070;28;20120;-60
2022/01/05 05:27:40;;;;;;;12.98;1.35;;;;;;;;;;5027062;28;20029;-59
2022/01/05 05:30:06;;;;;;;14.30;2.28;;;;;;;;;;5025601;28;20068;-59
2022/01/05 05:32:34;;;;;;;14.73;1.20;;;;;;;;;;5026987;28;20211;-61
2022/01/05 05:35:01;;;;;;;5.80;1.13;;;;;;;;;;5024418;28;20036;-58
2022/01/05 05:37:29;;;;;;;9.40;1.67;;;;;;;;;;5028170;28;20040;-58
2022/01/05 05:39:58;;;;;;;5.53;1.17;;;;;;;;;;5042863;28;20036;-58
2022/01/05 05:42:24;;;;;;;8.15;1.55;;;;;;;;;;5026689;28;20480;-58
2022/01/05 05:44:52;;;;;;;10.40;1.52;;;;;;;;;;5009133;28;20044;-57
2022/01/05 05:47:17;;;;;;;15.27;1.13;;;;;;;;;;5029008;28;20044;-60
2022/01/05 05:49:46;;;;;;;12.05;1.60;;;;;;;;;;5026078;28;20040;-60
2022/01/05 05:52:12;;;;;;;13.95;1.05;;;;;;;;;;5026287;28;20436;-59
2022/01/05 05:54:40;;;;;;;7.70;1.33;;;;;;;;;;5029092;28;20082;-58
2022/01/05 05:57:06;;;;;;;9.27;0.77;;;;;;;;;;5023304;28;20048;-59
2022/01/05 05:59:32;;;;;;;16.27;1.60;;;;;;;;;;5041732;28;21677;-59
2022/01/05 06:02:02;;;;;;;7.75;1.60;;;;;;;;;;5025017;28;21194;-59
2022/01/05 06:04:29;;;;;;;11.10;1.83;;;;;;;;;;5025232;28;20547;-59
2022/01/05 06:06:54;;;;;;;7.78;1.42;;;;;;;;;;5015569;28;20036;-59
2022/01/05 06:09:20;;;;;;;10.35;1.05;;;;;;;;;;5026870;28;20416;-59
2022/01/05 06:11:49;;;;;;;2.75;0.90;;;;;;;;;;5025218;28;20045;-59
2022/01/05 06:14:14;;;;;;;10.48;1.05;;;;;;;;;;5008149;28;20975;-58
2022/01/05 06:16:43;;;;;;;8.77;1.27;;;;;;;;;;5028381;28;20096;-58
2022/01/05 06:19:11;;;;;;;2.33;0.68;;;;;;;;;;5029950;28;21897;-57
2022/01/05 06:21:39;;;;;;;8.38;1.15;;;;;;;;;;5008501;28;20074;-58
2022/01/05 06:24:07;;;;;;;4.75;0.77;;;;;;;;;;5026819;28;20063;-58
2022/01/05 06:26:35;;;;;;;4.07;1.20;;;;;;;;;;5027931;28;20087;-59
2022/01/05 06:29:01;;;;;;;14.23;1.38;;;;;;;;;;5024974;28;20064;-59
2022/01/05 06:31:29;;;;;;;7.97;1.65;;;;;;;;;;5026209;28;20179;-59
2022/01/05 06:33:59;;;;;;;11.52;1.80;;;;;;;;;;5022050;28;20063;-66
2022/01/05 06:36:25;;;;;;;15.52;1.58;;;;;;;;;;5028542;28;20033;-58
2022/01/05 06:38:50;;;;;;;13.20;1.75;;;;;;;;;;5025015;28;20917;-59
2022/01/05 06:41:15;;;;;;;5.72;1.15;;;;;;;;;;5011885;28;20037;-58
2022/01/05 06:43:46;;;;;;;8.50;1.20;;;;;;;;;;5026309;28;21071;-58
2022/01/05 06:46:14;;;;;;;7.35;1.10;;;;;;;;;;5028542;28;20439;-58
2022/01/05 06:48:39;;;;;;;10.75;1.42;;;;;;;;;;4992210;28;21210;-59
2022/01/05 06:51:05;;;;;;;4.90;1.05;;;;;;;;;;5026199;28;20036;-59
2022/01/05 06:53:32;;;;;;;18.67;1.60;;;;;;;;;;5007681;28;20785;-58
2022/01/05 06:56:03;;;;;;;13.85;1.02;;;;;;;;;;5009663;28;20037;-58
2022/01/05 06:58:28;;;;;;;11.77;2.13;;;;;;;;;;5028333;28;20563;-58
2022/01/05 07:00:59;;;;;;;7.13;1.17;;;;;;;;;;5008512;28;20033;-58
2022/01/05 07:03:24;;;;;;;6.63;0.70;;;;;;;;;;5008204;28;20033;-58
2022/01/05 07:05:52;;;;;;;3.67;0.68;;;;;;;;;;5024309;28;20017;-58
2022/01/05 07:08:20;;;;;;;10.07;0.93;;;;;;;;;;5010141;28;20044;-59
2022/01/05 07:10:45;;;;;;;10.25;1.13;;;;;;;;;;5026694;28;20110;-58
2022/01/05 07:13:14;;;;;;;9.05;1.55;;;;;;;;;;5023698;28;20129;-58
2022/01/05 07:15:39;;;;;;;5.85;1.02;;;;;;;;;;5023852;28;20080;-57
2022/01/05 07:18:05;;;;;;;14.65;1.23;;;;;;;;;;5032115;28;20044;-57
2022/01/05 07:20:33;;;;;;;11.40;0.95;;;;;;;;;;5026189;28;20033;-57
2022/01/05 07:23:00;;;;;;;6.40;1.25;;;;;;;;;;5026642;28;20021;-58
2022/01/05 07:25:26;;;;;;;5.70;0.90;;;;;;;;;;5024515;28;21940;-58
2022/01/05 07:27:54;;;;;;;9.93;1.23;;;;;;;;;;5027645;28;20033;-57
2022/01/05 07:30:23;;;;;;;6.20;1.25;;;;;;;;;;5010002;28;20037;-58
2022/01/05 07:32:54;;;;;;;8.77;0.80;;;;;;;;;;5026421;28;20059;-58
2022/01/05 07:35:19;;;;;;;10.48;1.40;;;;;;;;;;5028988;28;20040;-58
2022/01/05 07:37:45;;;;;;;6.68;0.75;;;;;;;;;;5010591;28;20043;-60
2022/01/05 07:40:11;;;;;;;27.48;2.03;;;;;;;;;;5029191;28;20037;-58
2022/01/05 07:42:36;;;;;;;7.07;0.95;;;;;;;;;;5029412;28;20037;-58
2022/01/05 07:45:09;;;;;;;20.40;1.75;;;;;;;;;;5022627;28;20055;-58
2022/01/05 07:47:42;;;;;;;10.82;1.58;;;;;;;;;;5042075;28;20075;-59
2022/01/05 07:50:14;;;;;;;2.05;0.63;;;;;;;;;;5025954;28;20047;-59
2022/01/05 07:52:42;;;;;;;4.25;1.05;;;;;;;;;;5040212;28;20033;-59
2022/01/05 07:55:11;;;;;;;13.25;1.30;;;;;;;;;;5023716;28;20116;-59
2022/01/05 07:57:37;;;;;;;10.63;1.33;;;;;;;;;;5025106;28;20055;-58
2022/01/05 08:00:07;;;;;;;14.40;1.33;;;;;;;;;;5024147;28;20754;-59
2022/01/05 08:02:35;;;;;;;10.13;1.05;;;;;;;;;;5021790;28;20100;-58
2022/01/05 08:05:23;;;;;;;8.02;1.13;;;;;;;;;;5021935;28;20166;-60
2022/01/05 08:07:51;;;;;;;6.07;1.23;;;;;;;;;;5019138;28;20074;-59
2022/01/05 08:10:17;;;;;;;5.28;0.98;;;;;;;;;;5008116;28;20548;-59
2022/01/05 08:12:42;;;;;;;1.88;0.65;;;;;;;;;;5008533;28;20035;-59
2022/01/05 08:15:09;;;;;;;10.77;1.13;;;;;;;;;;5040579;28;20024;-59
2022/01/05 08:17:34;;;;;;;15.68;1.85;;;;;;;;;;5025820;28;20396;-58
2022/01/05 08:20:03;;;;;;;8.10;0.63;;;;;;;;;;5025217;28;20017;-59
2022/01/05 08:22:31;;;;;;;9.10;0.88;;;;;;;;;;5026472;28;20033;-58
2022/01/05 08:25:16;;;;;;;4.28;0.70;;;;;;;;;;5023078;28;20361;-58
2022/01/05 08:27:46;;;;;;;13.82;1.10;;;;;;;;;;5024050;28;20094;-58
2022/01/05 08:30:21;;;;;;;8.15;1.00;;;;;;;;;;5025351;28;20020;-58
2022/01/05 08:33:20;;;;;;;18.83;1.30;;;;;;;;;;5023439;28;20059;-58
2022/01/05 08:39:27;;;;;;;14.05;1.75;;;;;;;;;;5028242;28;20106;-58
2022/01/05 08:42:27;;;;;;;10.48;1.35;;;;;;;;;;5025912;28;20068;-58
2022/01/05 08:44:55;;;;;;;19.35;1.85;;;;;;;;;;5023873;28;20036;-59
2022/01/05 08:47:21;;;;;;;18.92;2.17;;;;;;;;;;5020627;28;20025;-59
2022/01/05 08:49:46;;;;;;;12.82;1.48;;;;;;;;;;5002210;28;20048;-59
2022/01/05 08:52:25;;;;;;;10.68;1.40;;;;;;;;;;5020589;28;20263;-58
2022/01/05 08:58:26;;;;;;;16.42;2.17;;;;;;;;;;5025795;28;20052;-59
2022/01/05 09:00:52;;;;;;;12.05;1.95;;;;;;;;;;5023317;28;20033;-59
2022/01/05 09:03:20;;;;;;;17.70;2.30;;;;;;;;;;5018612;28;20067;-59
2022/01/05 09:05:48;;;;;;;11.18;1.38;;;;;;;;;;5020864;28;20029;-57
2022/01/05 09:08:20;;;;;;;13.80;1.42;;;;;;;;;;5023887;28;20065;-57
2022/01/05 09:14:39;;;;;;;5.22;1.15;;;;;;;;;;5024957;28;20222;-58
2022/01/05 09:17:09;;;;;;;8.13;1.20;;;;;;;;;;5026774;28;20033;-58
2022/01/05 09:19:37;;;;;;;9.38;1.30;;;;;;;;;;5024155;28;20033;-59
2022/01/05 09:25:38;;;;;;;6.45;1.33;;;;;;;;;;5022927;28;20120;-58
2022/01/05 09:28:04;;;;;;;7.72;1.00;;;;;;;;;;5023781;28;20784;-59
2022/01/05 09:30:32;;;;;;;12.48;1.00;;;;;;;;;;5006859;28;20032;-58
2022/01/05 09:32:58;;;;;;;19.23;1.90;;;;;;;;;;5007272;28;20037;-58
2022/01/05 09:35:35;;;;;;;14.80;1.98;;;;;;;;;;5008947;28;20037;-58
2022/01/05 09:44:05;;;;;;;11.13;1.50;;;;;;;;;;5023195;28;20037;-59
2022/01/05 09:47:03;;;;;;;10.88;1.63;;;;;;;;;;5002623;28;20470;-59
2022/01/05 09:53:04;;;;;;;14.73;3.45;;;;;;;;;;5024106;28;20151;-59
2022/01/05 09:55:33;;;;;;;13.05;1.75;;;;;;;;;;5024467;28;20037;-60
2022/01/05 09:57:58;;;;;;;17.58;2.05;;;;;;;;;;5017719;28;20068;-60
2022/01/05 10:00:27;;;;;;;8.90;1.45;;;;;;;;;;5024899;28;20170;-60
2022/01/05 10:02:57;;;;;;;14.48;1.50;;;;;;;;;;5034519;28;20514;-59
2022/01/05 10:05:24;;;;;;;7.13;1.13;;;;;;;;;;5003855;28;20036;-59
2022/01/05 10:07:54;;;;;;;17.45;1.95;;;;;;;;;;5008582;28;21526;-59
2022/01/05 10:10:24;;;;;;;15.35;1.67;;;;;;;;;;5023682;28;20478;-59
2022/01/05 10:12:55;;;;;;;15.02;1.45;;;;;;;;;;5024203;28;20037;-59
2022/01/05 10:15:25;;;;;;;13.35;1.60;;;;;;;;;;5024743;28;20046;-59
2022/01/05 10:18:26;;;;;;;11.90;2.45;;;;;;;;;;5027813;28;20037;-59
2022/01/05 10:20:54;;;;;;;23.40;2.88;;;;;;;;;;5029531;28;20089;-59
2022/01/05 10:23:41;;;;;;;9.45;1.40;;;;;;;;;;5026928;28;20049;-57
2022/01/05 10:26:24;;;;;;;9.75;1.45;;;;;;;;;;5026131;28;20037;-58
2022/01/05 10:32:26;;;;;;;11.25;2.00;;;;;;;;;;5027966;28;20036;-60
2022/01/05 10:35:11;;;;;;;25.10;2.33;;;;;;;;;;5042010;28;20033;-58
2022/01/05 10:37:40;;;;;;;14.15;1.92;;;;;;;;;;5042776;28;20033;-59
2022/01/05 10:40:22;;;;;;;22.83;2.55;;;;;;;;;;5028161;28;21217;-58
2022/01/05 10:43:21;;;;;;;23.02;2.08;;;;;;;;;;5026624;28;20111;-59
2022/01/05 10:45:51;;;;;;;21.92;2.67;;;;;;;;;;5026583;28;20091;-59
2022/01/05 10:48:28;;;;;;;22.13;2.13;;;;;;;;;;5028290;28;20379;-59
2022/01/05 10:51:12;;;;;;;19.50;2.92;;;;;;;;;;5027753;28;20083;-59
2022/01/05 10:53:42;;;;;;;14.63;2.42;;;;;;;;;;5026194;28;20041;-59
2022/01/05 10:56:25;;;;;;;20.15;2.53;;;;;;;;;;5025246;28;20037;-59
2022/01/05 10:58:50;;;;;;;11.73;2.13;;;;;;;;;;5025464;28;20049;-58
2022/01/05 11:01:51;;;;;;;14.43;2.70;;;;;;;;;;5022862;28;20036;-59
2022/01/05 11:04:19;;;;;;;25.80;2.67;;;;;;;;;;5021876;28;20382;-58
2022/01/05 11:07:03;;;;;;;27.52;3.03;;;;;;;;;;5020122;28;20504;-59
2022/01/05 11:09:53;;;;;;;20.38;2.30;;;;;;;;;;5026465;28;20033;-60
2022/01/05 11:12:20;;;;;;;17.45;2.40;;;;;;;;;;5026269;28;20079;-58
2022/01/05 11:14:49;;;;;;;24.08;2.63;;;;;;;;;;5010134;28;21657;-59
2022/01/05 11:17:16;;;;;;;20.25;2.72;;;;;;;;;;5003163;28;20064;-60
2022/01/05 11:20:13;;;;;;;26.90;2.70;;;;;;;;;;5038752;28;20021;-59
2022/01/05 11:22:41;;;;;;;20.13;2.28;;;;;;;;;;5023307;28;20029;-60
2022/01/05 11:25:08;;;;;;;14.93;2.00;;;;;;;;;;5022264;28;20025;-60
2022/01/05 11:27:36;;;;;;;14.50;2.30;;;;;;;;;;5041979;28;20155;-60
2022/01/05 11:30:23;;;;;;;18.85;2.85;;;;;;;;;;5018166;28;20233;-59
2022/01/05 11:32:49;;;;;;;20.20;2.72;;;;;;;;;;5022791;28;20176;-60
2022/01/05 11:38:50;;;;;;;8.38;2.25;;;;;;;;;;5024157;28;20647;-60
2022/01/05 11:41:19;;;;;;;18.15;3.10;;;;;;;;;;5024298;28;20199;-60
2022/01/05 11:43:46;;;;;;;30.33;2.65;;;;;;;;;;5023008;28;20033;-61
2022/01/05 11:46:32;;;;;;;22.50;3.33;;;;;;;;;;5023904;28;20494;-60
2022/01/05 11:49:02;;;;;;;13.13;2.17;;;;;;;;;;5023142;28;20663;-60
2022/01/05 11:55:05;;;;;;;19.77;2.50;;;;;;;;;;5024900;28;20031;-58
2022/01/05 11:58:02;;;;;;;19.90;2.90;;;;;;;;;;5024994;28;20039;-59
2022/01/05 12:00:47;;;;;;;13.18;1.80;;;;;;;;;;5023607;28;20041;-60
2022/01/05 12:06:48;;;;;;;23.00;2.55;;;;;;;;;;5023392;28;22002;-60
2022/01/05 12:09:18;;;;;;;13.63;2.30;;;;;;;;;;5025455;28;20028;-60
2022/01/05 12:12:02;;;;;;;7.70;1.80;;;;;;;;;;5024989;28;20033;-60
2022/01/05 12:15:05;;;;;;;12.93;1.83;;;;;;;;;;5024856;28;21001;-61
2022/01/05 12:17:34;;;;;;;8.48;1.35;;;;;;;;;;5026821;28;20028;-60
2022/01/05 12:20:06;;;;;;;12.07;1.73;;;;;;;;;;5023943;28;20450;-60
2022/01/05 12:22:32;;;;;;;7.68;1.20;;;;;;;;;;5018742;28;20068;-61
2022/01/05 12:24:58;;;;;;;12.48;1.98;;;;;;;;;;5024419;28;20071;-61
2022/01/05 12:27:30;;;;;;;12.18;2.00;;;;;;;;;;5022798;28;20882;-60
2022/01/05 12:30:36;;;;;;;12.50;2.00;;;;;;;;;;5020969;28;20033;-60
2022/01/05 12:36:38;;;;;;;12.23;2.28;;;;;;;;;;5023109;28;22029;-60
2022/01/05 12:39:08;;;;;;;15.55;1.67;;;;;;;;;;5003199;28;20025;-61
2022/01/05 12:41:42;;;;;;;22.25;2.38;;;;;;;;;;5039135;28;20040;-60
2022/01/05 12:44:25;;;;;;;18.38;2.25;;;;;;;;;;5020001;28;20029;-60
2022/01/05 12:46:57;;;;;;;18.35;2.22;;;;;;;;;;5026450;28;20029;-60
2022/01/05 12:49:32;;;;;;;12.38;1.85;;;;;;;;;;5021458;28;20043;-60
2022/01/05 12:52:19;;;;;;;8.07;1.92;;;;;;;;;;5024471;28;20045;-60
2022/01/05 12:54:47;;;;;;;19.95;2.78;;;;;;;;;;5020998;28;20806;-60
2022/01/05 12:57:18;;;;;;;14.50;2.22;;;;;;;;;;5020974;28;20025;-61
2022/01/05 13:00:18;;;;;;;23.85;2.10;;;;;;;;;;5021248;28;20130;-60
2022/01/05 13:02:47;;;;;;;18.70;2.05;;;;;;;;;;5037978;28;20102;-60
2022/01/05 13:05:12;;;;;;;28.45;2.20;;;;;;;;;;5006422;28;20025;-60
2022/01/05 13:07:44;;;;;;;16.80;1.63;;;;;;;;;;5036384;28;20034;-60
2022/01/05 13:10:13;;;;;;;22.20;2.15;;;;;;;;;;5022216;28;20051;-60
2022/01/05 13:12:39;;;;;;;22.90;2.72;;;;;;;;;;5035403;28;20050;-61
2022/01/05 13:15:38;;;;;;;25.05;3.25;;;;;;;;;;5022681;28;20349;-60
2022/01/05 13:18:06;;;;;;;22.33;3.08;;;;;;;;;;5024833;28;20091;-60
2022/01/05 13:20:36;;;;;;;13.68;3.00;;;;;;;;;;4983735;28;20380;-61
2022/01/05 13:23:07;;;;;;;21.33;2.80;;;;;;;;;;5021187;28;20032;-62
2022/01/05 13:25:35;;;;;;;15.32;3.15;;;;;;;;;;5003711;28;20381;-60
2022/01/05 13:28:06;;;;;;;18.92;2.80;;;;;;;;;;5021385;28;20110;-59
2022/01/05 13:30:32;;;;;;;24.40;2.97;;;;;;;;;;5003925;28;20040;-59
2022/01/05 13:33:04;;;;;;;14.18;1.60;;;;;;;;;;5024201;28;21342;-59
2022/01/05 13:35:42;;;;;;;12.23;2.55;;;;;;;;;;5022356;28;20064;-59
2022/01/05 13:38:25;;;;;;;14.13;1.60;;;;;;;;;;5024151;28;20736;-59
2022/01/05 13:40:54;;;;;;;9.15;1.67;;;;;;;;;;5027967;28;20495;-59
2022/01/05 13:43:20;;;;;;;9.32;1.73;;;;;;;;;;5027179;28;20035;-59
2022/01/05 13:49:22;;;;;;;9.20;1.30;;;;;;;;;;5028480;28;20032;-59
2022/01/05 13:55:26;;;;;;;11.32;1.58;;;;;;;;;;5018088;28;20065;-60
2022/01/05 13:58:02;;;;;;;12.73;1.88;;;;;;;;;;5025251;28;20140;-59
2022/01/05 14:00:28;;;;;;;11.82;1.92;;;;;;;;;;5008871;28;20045;-59
2022/01/05 14:02:53;;;;;;;11.15;1.70;;;;;;;;;;5026592;28;20065;-58
2022/01/05 14:05:23;;;;;;;19.73;1.75;;;;;;;;;;5009072;28;20052;-59
2022/01/05 14:11:48;;;;;;;10.20;1.45;;;;;;;;;;5009527;28;20028;-60
2022/01/05 14:14:14;;;;;;;18.55;1.70;;;;;;;;;;4998183;28;20087;-59
2022/01/05 14:16:44;;;;;;;8.50;1.85;;;;;;;;;;5018197;28;20089;-60
2022/01/05 14:19:11;;;;;;;11.93;1.60;;;;;;;;;;5018706;28;20044;-59
2022/01/05 14:21:40;;;;;;;17.55;1.48;;;;;;;;;;5003425;28;20025;-59
2022/01/05 14:24:09;;;;;;;9.32;1.50;;;;;;;;;;5021502;28;20055;-59
2022/01/05 14:26:37;;;;;;;12.73;2.22;;;;;;;;;;5018987;28;20029;-59
2022/01/05 14:29:03;;;;;;;24.50;2.22;;;;;;;;;;5041127;28;20060;-59
2022/01/05 14:31:33;;;;;;;17.85;2.38;;;;;;;;;;5040463;28;20574;-58
2022/01/05 14:33:59;;;;;;;17.48;2.45;;;;;;;;;;5019287;28;20078;-58
2022/01/05 14:36:30;;;;;;;15.25;2.20;;;;;;;;;;5006055;28;20028;-60
2022/01/05 14:38:58;;;;;;;21.05;2.58;;;;;;;;;;5022354;28;20063;-60
2022/01/05 14:41:33;;;;;;;24.35;2.83;;;;;;;;;;5021101;28;20028;-59
2022/01/05 14:44:15;;;;;;;28.25;2.88;;;;;;;;;;5001204;28;20450;-59
2022/01/05 14:46:42;;;;;;;16.52;3.17;;;;;;;;;;5005864;28;20053;-59
2022/01/05 14:49:11;;;;;;;23.48;2.72;;;;;;;;;;5008223;28;20045;-59
2022/01/05 14:51:40;;;;;;;27.13;3.05;;;;;;;;;;5017830;28;20040;-59
2022/01/05 14:54:08;;;;;;;25.63;2.10;;;;;;;;;;5025967;28;20028;-59
2022/01/05 14:56:35;;;;;;;33.25;2.47;;;;;;;;;;5022633;28;20033;-60
2022/01/05 14:59:03;;;;;;;22.33;2.97;;;;;;;;;;5021383;28;20072;-59
2022/01/05 15:01:31;;;;;;;22.20;3.08;;;;;;;;;;5025481;28;20095;-59
2022/01/05 15:03:57;;;;;;;28.50;2.92;;;;;;;;;;5023209;28;20102;-59
2022/01/05 15:06:26;;;;;;;26.80;3.65;;;;;;;;;;5023827;28;20086;-60
2022/01/05 15:08:51;;;;;;;27.20;3.03;;;;;;;;;;5037372;28;20059;-60
2022/01/05 15:11:20;;;;;;;22.70;3.25;;;;;;;;;;5020903;28;20029;-59
2022/01/05 15:13:48;;;;;;;19.60;1.63;;;;;;;;;;5040557;28;20115;-59
2022/01/05 15:16:18;;;;;;;25.02;2.13;;;;;;;;;;5024626;28;20060;-59
2022/01/05 15:18:46;;;;;;;10.98;1.45;;;;;;;;;;5027315;28;20041;-59
2022/01/05 15:21:12;;;;;;;16.75;3.00;;;;;;;;;;5023081;28;20052;-60
2022/01/05 15:23:38;;;;;;;16.85;1.90;;;;;;;;;;5024879;28;20036;-59
2022/01/05 15:26:04;;;;;;;8.65;1.42;;;;;;;;;;5023824;28;20060;-60
2022/01/05 15:28:32;;;;;;;8.55;1.70;;;;;;;;;;5007448;28;20035;-60
2022/01/05 15:30:59;;;;;;;19.23;2.47;;;;;;;;;;5026180;28;20025;-59
2022/01/05 15:33:28;;;;;;;27.40;1.98;;;;;;;;;;5023209;28;20480;-59
2022/01/05 15:36:05;;;;;;;15.90;1.83;;;;;;;;;;5023172;28;21006;-58
2022/01/05 15:38:30;;;;;;;17.27;2.38;;;;;;;;;;5025377;28;20733;-59
2022/01/05 15:40:57;;;;;;;31.88;3.28;;;;;;;;;;5024474;28;20037;-58
2022/01/05 15:43:23;;;;;;;14.48;1.75;;;;;;;;;;5021711;28;20821;-58
2022/01/05 15:45:49;;;;;;;11.20;2.03;;;;;;;;;;5021137;28;20055;-58
2022/01/05 15:48:14;;;;;;;23.15;2.35;;;;;;;;;;5003561;28;20037;-59